createdAt,value
2023-01-01T00:00:25.058Z,971.45
2023-01-01T00:01:24.901Z,971.49
2023-01-01T00:02:25.071Z,971.49
2023-01-01T00:03:24.958Z,971.51
2023-01-01T00:04:24.949Z,971.46
2023-01-01T00:05:24.854Z,971.51
2023-01-01T00:06:24.961Z,971.51
2023-01-01T00:07:24.852Z,971.50
2023-01-01T00:08:24.925Z,971.50
2023-01-01T00:09:24.767Z,971.50
2023-01-01T00:10:24.911Z,971.52
2023-01-01T00:11:24.734Z,971.51
2023-01-01T00:12:24.993Z,971.54
2023-01-01T00:13:24.754Z,971.59
2023-01-01T00:14:24.935Z,971.60
2023-01-01T00:15:24.705Z,971.57
2023-01-01T00:16:24.995Z,971.58
2023-01-01T00:17:24.713Z,971.61
2023-01-01T00:18:24.805Z,971.62
2023-01-01T00:19:24.631Z,971.61
2023-01-01T00:20:28.688Z,971.59
2023-01-01T00:21:24.659Z,971.69
2023-01-01T00:23:24.617Z,971.61
2023-01-01T00:24:24.757Z,971.62
2023-01-01T00:25:24.551Z,971.59
2023-01-01T00:26:29.415Z,971.60
2023-01-01T00:27:24.550Z,971.57
2023-01-01T00:28:24.841Z,971.56
2023-01-01T00:29:24.551Z,971.48
2023-01-01T00:30:24.641Z,971.46
2023-01-01T00:31:24.562Z,971.51
2023-01-01T00:32:24.707Z,971.47
2023-01-01T00:33:24.456Z,971.49
2023-01-01T00:34:24.556Z,971.46
2023-01-01T00:35:25.055Z,971.45
2023-01-01T00:36:24.572Z,971.50
2023-01-01T00:37:24.405Z,971.46
2023-01-01T00:38:24.604Z,971.41
2023-01-01T00:39:24.395Z,971.45
2023-01-01T00:40:24.698Z,971.42
2023-01-01T00:41:24.366Z,971.49
2023-01-01T00:42:24.575Z,971.52
2023-01-01T00:43:24.340Z,971.49
2023-01-01T00:44:24.432Z,971.47
2023-01-01T00:45:24.291Z,971.48
2023-01-01T00:46:24.493Z,971.45
2023-01-01T00:47:24.311Z,971.42
2023-01-01T00:48:24.372Z,971.38
2023-01-01T00:49:24.234Z,971.43
2023-01-01T00:50:24.321Z,971.39
2023-01-01T00:51:24.240Z,971.39
2023-01-01T00:52:24.327Z,971.39
2023-01-01T00:53:24.234Z,971.34
2023-01-01T00:54:24.351Z,971.38
2023-01-01T00:55:24.198Z,971.38
2023-01-01T00:56:24.206Z,971.36
2023-01-01T00:57:24.167Z,971.36
2023-01-01T00:58:24.326Z,971.40
2023-01-01T00:59:28.663Z,971.36
2023-01-01T01:00:24.157Z,971.40
2023-01-01T01:01:24.201Z,971.36
2023-01-01T01:02:24.284Z,971.34
2023-01-01T01:03:24.211Z,971.31
2023-01-01T01:04:24.181Z,971.30
2023-01-01T01:05:24.058Z,971.32
2023-01-01T01:06:24.075Z,971.29
2023-01-01T01:07:24.021Z,971.32
2023-01-01T01:08:30.482Z,971.31
2023-01-01T01:09:23.982Z,971.31
2023-01-01T01:10:24.036Z,971.31
2023-01-01T01:11:23.947Z,971.33
2023-01-01T01:12:24.022Z,971.27
2023-01-01T01:13:23.940Z,971.29
2023-01-01T01:14:24.096Z,971.29
2023-01-01T01:15:23.894Z,971.27
2023-01-01T01:16:24.211Z,971.28
2023-01-01T01:17:23.914Z,971.28
2023-01-01T01:18:23.955Z,971.26
2023-01-01T01:19:23.904Z,971.30
2023-01-01T01:20:23.985Z,971.31
2023-01-01T01:21:23.882Z,971.33
2023-01-01T01:22:28.311Z,971.34
2023-01-01T01:23:23.801Z,971.31
2023-01-01T01:24:23.963Z,971.30
2023-01-01T01:25:23.783Z,971.27
2023-01-01T01:26:23.949Z,971.35
2023-01-01T01:27:23.774Z,971.31
2023-01-01T01:28:23.807Z,971.26
2023-01-01T01:29:23.769Z,971.29
2023-01-01T01:30:23.767Z,971.26
2023-01-01T01:31:23.761Z,971.31
2023-01-01T01:32:23.845Z,971.33
2023-01-01T01:33:23.689Z,971.31
2023-01-01T01:34:27.803Z,971.29
2023-01-01T01:35:23.661Z,971.33
2023-01-01T01:36:23.681Z,971.30
2023-01-01T01:37:23.639Z,971.33
2023-01-01T01:38:23.655Z,971.30
2023-01-01T01:39:23.735Z,971.35
2023-01-01T01:40:23.598Z,971.34
2023-01-01T01:41:28.231Z,971.37
2023-01-01T01:42:23.585Z,971.41
2023-01-01T01:43:23.644Z,971.37
2023-01-01T01:44:23.545Z,971.43
2023-01-01T01:45:28.330Z,971.43
2023-01-01T01:46:23.542Z,971.44
2023-01-01T01:47:23.524Z,971.47
2023-01-01T01:48:23.507Z,971.43
2023-01-01T01:49:23.577Z,971.43
2023-01-01T01:50:23.513Z,971.45
2023-01-01T01:51:23.465Z,971.44
2023-01-01T01:52:23.465Z,971.48
2023-01-01T01:53:23.482Z,971.49
2023-01-01T01:54:23.414Z,971.47
2023-01-01T01:55:30.238Z,971.48
2023-01-01T01:56:23.428Z,971.49
2023-01-01T01:57:24.199Z,971.47
2023-01-01T01:58:35.100Z,971.45
2023-01-01T01:59:23.492Z,971.49
2023-01-01T02:00:23.358Z,971.48
2023-01-01T02:01:23.596Z,971.49
2023-01-01T02:02:23.547Z,971.49
2023-01-01T02:03:23.492Z,971.49
2023-01-01T02:04:23.293Z,971.52
2023-01-01T02:05:23.327Z,971.49
2023-01-01T02:06:23.289Z,971.50
2023-01-01T02:07:23.280Z,971.53
2023-01-01T02:08:23.344Z,971.56
2023-01-01T02:09:23.217Z,971.58
2023-01-01T02:10:23.284Z,971.56
2023-01-01T02:11:23.249Z,971.50
2023-01-01T02:12:23.211Z,971.54
2023-01-01T02:13:23.204Z,971.56
2023-01-01T02:14:23.171Z,971.53
2023-01-01T02:15:23.233Z,971.57
2023-01-01T02:16:23.199Z,971.55
2023-01-01T02:17:23.242Z,971.54
2023-01-01T02:18:23.128Z,971.55
2023-01-01T02:19:23.155Z,971.55
2023-01-01T02:20:23.103Z,971.55
2023-01-01T02:21:23.125Z,971.55
2023-01-01T02:22:23.089Z,971.56
2023-01-01T02:23:23.124Z,971.54
2023-01-01T02:24:23.036Z,971.48
2023-01-01T02:25:23.121Z,971.55
2023-01-01T02:26:23.012Z,971.46
2023-01-01T02:27:23.110Z,971.53
2023-01-01T02:28:22.993Z,971.54
2023-01-01T02:29:23.079Z,971.52
2023-01-01T02:30:22.955Z,971.52
2023-01-01T02:31:23.721Z,971.52
2023-01-01T02:32:22.949Z,971.55
2023-01-01T02:33:23.081Z,971.55
2023-01-01T02:34:22.924Z,971.50
2023-01-01T02:35:22.925Z,971.51
2023-01-01T02:36:22.899Z,971.48
2023-01-01T02:37:22.949Z,971.45
2023-01-01T02:38:22.897Z,971.45
2023-01-01T02:39:22.881Z,971.43
2023-01-01T02:40:22.840Z,971.47
2023-01-01T02:41:22.888Z,971.42
2023-01-01T02:42:22.844Z,971.43
2023-01-01T02:43:24.938Z,971.42
2023-01-01T02:44:22.805Z,971.37
2023-01-01T02:45:22.780Z,971.38
2023-01-01T02:46:54.267Z,971.39
2023-01-01T02:47:55.158Z,971.35
2023-01-01T02:48:55.203Z,971.34
2023-01-01T02:49:55.115Z,971.35
2023-01-01T02:50:55.157Z,971.37
2023-01-01T02:51:55.089Z,971.39
2023-01-01T02:52:55.074Z,971.41
2023-01-01T02:53:55.053Z,971.40
2023-01-01T02:54:55.128Z,971.41
2023-01-01T02:55:55.042Z,971.39
2023-01-01T02:56:55.148Z,971.41
2023-01-01T02:57:55.010Z,971.42
2023-01-01T02:58:55.235Z,971.46
2023-01-01T02:59:55.003Z,971.45
2023-01-01T03:00:54.985Z,971.45
2023-01-01T03:01:55.096Z,971.53
2023-01-01T03:02:55.140Z,971.56
2023-01-01T03:03:54.931Z,971.54
2023-01-01T03:04:55.041Z,971.53
2023-01-01T03:05:54.944Z,971.55
2023-01-01T03:06:55.014Z,971.51
2023-01-01T03:07:54.876Z,971.54
2023-01-01T03:08:55.435Z,971.56
2023-01-01T03:09:54.859Z,971.54
2023-01-01T03:10:54.869Z,971.54
2023-01-01T03:11:54.825Z,971.56
2023-01-01T03:12:54.930Z,971.52
2023-01-01T03:13:54.805Z,971.55
2023-01-01T03:14:54.919Z,971.54
2023-01-01T03:15:54.830Z,971.55
2023-01-01T03:16:54.750Z,971.57
2023-01-01T03:17:54.796Z,971.64
2023-01-01T03:18:54.712Z,971.63
2023-01-01T03:19:54.873Z,971.67
2023-01-01T03:20:54.719Z,971.68
2023-01-01T03:21:54.721Z,971.65
2023-01-01T03:22:54.675Z,971.70
2023-01-01T03:23:54.813Z,971.71
2023-01-01T03:24:54.641Z,971.66
2023-01-01T03:25:54.751Z,971.69
2023-01-01T03:26:54.633Z,971.63
2023-01-01T03:27:54.777Z,971.74
2023-01-01T03:28:54.614Z,971.71
2023-01-01T03:29:55.736Z,971.73
2023-01-01T03:30:54.585Z,971.72
2023-01-01T03:31:54.601Z,971.71
2023-01-01T03:32:54.553Z,971.73
2023-01-01T03:33:54.607Z,971.71
2023-01-01T03:34:54.521Z,971.70
2023-01-01T03:35:54.572Z,971.70
2023-01-01T03:36:54.482Z,971.71
2023-01-01T03:37:54.624Z,971.72
2023-01-01T03:38:54.523Z,971.70
2023-01-01T03:39:54.503Z,971.77
2023-01-01T03:40:54.490Z,971.76
2023-01-01T03:41:54.455Z,971.77
2023-01-01T03:42:54.580Z,971.79
2023-01-01T03:43:54.440Z,971.75
2023-01-01T03:44:54.587Z,971.77
2023-01-01T03:45:54.382Z,971.75
2023-01-01T03:46:54.473Z,971.77
2023-01-01T03:47:54.354Z,971.74
2023-01-01T03:49:00.263Z,971.77
2023-01-01T03:49:54.329Z,971.76
2023-01-01T03:50:54.414Z,971.80
2023-01-01T03:51:54.326Z,971.82
2023-01-01T03:52:54.329Z,971.84
2023-01-01T03:53:54.289Z,971.84
2023-01-01T03:54:58.794Z,971.80
2023-01-01T03:55:54.286Z,971.80
2023-01-01T03:56:54.405Z,971.81
2023-01-01T03:57:54.266Z,971.80
2023-01-01T03:58:54.259Z,971.84
2023-01-01T03:59:54.261Z,971.83
2023-01-01T04:00:54.232Z,971.83
2023-01-01T04:01:54.391Z,971.83
2023-01-01T04:02:54.275Z,971.82
2023-01-01T04:03:54.226Z,971.86
2023-01-01T04:04:54.367Z,971.87
2023-01-01T04:05:54.136Z,971.87
2023-01-01T04:06:54.269Z,971.83
2023-01-01T04:07:55.203Z,971.85
2023-01-01T04:08:54.118Z,971.82
2023-01-01T04:09:54.137Z,971.83
2023-01-01T04:10:54.081Z,971.79
2023-01-01T04:11:54.242Z,971.78
2023-01-01T04:12:54.542Z,971.76
2023-01-01T04:13:54.059Z,971.73
2023-01-01T04:14:54.011Z,971.73
2023-01-01T04:15:54.131Z,971.73
2023-01-01T04:16:53.991Z,971.81
2023-01-01T04:17:54.030Z,971.77
2023-01-01T04:18:53.975Z,971.79
2023-01-01T04:19:55.346Z,971.75
2023-01-01T04:20:53.936Z,971.83
2023-01-01T04:21:54.017Z,971.80
2023-01-01T04:22:53.933Z,971.78
2023-01-01T04:23:53.966Z,971.83
2023-01-01T04:24:53.887Z,971.79
2023-01-01T04:25:53.945Z,971.82
2023-01-01T04:26:53.939Z,971.83
2023-01-01T04:27:53.901Z,971.84
2023-01-01T04:28:53.882Z,971.83
2023-01-01T04:29:53.867Z,971.81
2023-01-01T04:31:28.619Z,971.78
2023-01-01T04:32:29.727Z,971.81
2023-01-01T04:33:29.614Z,971.86
2023-01-01T04:34:29.724Z,971.86
2023-01-01T04:35:29.578Z,971.86
2023-01-01T04:36:29.527Z,971.84
2023-01-01T04:37:29.532Z,971.87
2023-01-01T04:38:29.590Z,971.87
2023-01-01T04:39:29.502Z,971.88
2023-01-01T04:40:29.551Z,971.90
2023-01-01T04:41:30.010Z,971.90
2023-01-01T04:42:29.624Z,971.95
2023-01-01T04:43:29.473Z,971.96
2023-01-01T04:44:29.657Z,971.97
2023-01-01T04:45:29.502Z,971.99
2023-01-01T04:46:29.439Z,972.02
2023-01-01T04:47:29.411Z,972.02
2023-01-01T04:48:30.193Z,972.03
2023-01-01T04:49:29.421Z,972.05
2023-01-01T04:50:29.522Z,972.04
2023-01-01T04:51:29.479Z,972.05
2023-01-01T04:52:29.335Z,972.03
2023-01-01T04:53:29.411Z,972.05
2023-01-01T04:54:29.299Z,972.05
2023-01-01T04:55:29.382Z,972.02
2023-01-01T04:56:29.267Z,972.02
2023-01-01T04:57:29.423Z,972.04
2023-01-01T04:58:29.241Z,972.08
2023-01-01T04:59:29.335Z,972.05
2023-01-01T05:00:29.241Z,972.05
2023-01-01T05:01:29.431Z,972.05
2023-01-01T05:02:29.276Z,971.99
2023-01-01T05:03:29.311Z,972.04
2023-01-01T05:04:29.167Z,972.08
2023-01-01T05:05:29.329Z,972.07
2023-01-01T05:06:29.173Z,972.05
2023-01-01T05:07:29.272Z,972.08
2023-01-01T05:08:29.117Z,972.12
2023-01-01T05:09:29.275Z,972.12
2023-01-01T05:10:29.103Z,972.17
2023-01-01T05:11:29.336Z,972.09
2023-01-01T05:12:29.079Z,972.10
2023-01-01T05:13:29.092Z,972.17
2023-01-01T05:14:29.056Z,972.17
2023-01-01T05:15:29.102Z,972.19
2023-01-01T05:16:29.121Z,972.17
2023-01-01T05:17:29.082Z,972.23
2023-01-01T05:18:28.972Z,972.24
2023-01-01T05:19:29.131Z,972.22
2023-01-01T05:20:28.977Z,972.25
2023-01-01T05:21:29.153Z,972.26
2023-01-01T05:22:28.994Z,972.26
2023-01-01T05:23:28.948Z,972.28
2023-01-01T05:24:28.912Z,972.32
2023-01-01T05:25:29.007Z,972.32
2023-01-01T05:26:28.872Z,972.30
2023-01-01T05:27:29.012Z,972.32
2023-01-01T05:28:28.885Z,972.32
2023-01-01T05:29:35.003Z,972.32
2023-01-01T05:30:28.900Z,972.30
2023-01-01T05:31:28.915Z,972.27
2023-01-01T05:32:28.859Z,972.29
2023-01-01T05:33:28.823Z,972.27
2023-01-01T05:35:03.775Z,972.29
2023-01-01T05:36:04.647Z,972.27
2023-01-01T05:37:04.787Z,972.26
2023-01-01T05:38:04.611Z,972.22
2023-01-01T05:39:04.733Z,972.23
2023-01-01T05:40:04.588Z,972.24
2023-01-01T05:41:04.587Z,972.22
2023-01-01T05:42:04.573Z,972.29
2023-01-01T05:43:04.649Z,972.31
2023-01-01T05:44:04.585Z,972.33
2023-01-01T05:45:04.634Z,972.34
2023-01-01T05:46:04.582Z,972.34
2023-01-01T05:47:04.629Z,972.38
2023-01-01T05:48:04.649Z,972.35
2023-01-01T05:49:04.600Z,972.38
2023-01-01T05:50:39.216Z,972.37
2023-01-01T05:52:11.667Z,972.40
2023-01-01T05:53:12.466Z,972.44
2023-01-01T05:54:45.387Z,972.43
2023-01-01T05:55:45.335Z,972.43
2023-01-01T05:56:45.343Z,972.44
2023-01-01T05:57:45.320Z,972.44
2023-01-01T05:58:45.364Z,972.45
2023-01-01T05:59:45.324Z,972.48
2023-01-01T06:00:45.321Z,972.43
2023-01-01T06:01:46.273Z,972.43
2023-01-01T06:02:45.378Z,972.46
2023-01-01T06:03:45.325Z,972.45
2023-01-01T06:04:45.282Z,972.44
2023-01-01T06:05:45.234Z,972.44
2023-01-01T06:06:45.178Z,972.45
2023-01-01T06:07:48.677Z,972.45
2023-01-01T06:08:45.243Z,972.45
2023-01-01T06:09:45.189Z,972.42
2023-01-01T06:10:45.891Z,972.47
2023-01-01T06:11:45.122Z,972.46
2023-01-01T06:12:45.168Z,972.45
2023-01-01T06:13:45.245Z,972.43
2023-01-01T06:14:45.068Z,972.44
2023-01-01T06:15:45.122Z,972.43
2023-01-01T06:16:45.078Z,972.45
2023-01-01T06:17:45.219Z,972.47
2023-01-01T06:18:45.126Z,972.43
2023-01-01T06:19:45.022Z,972.47
2023-01-01T06:20:45.046Z,972.42
2023-01-01T06:21:44.979Z,972.44
2023-01-01T06:22:45.019Z,972.44
2023-01-01T06:23:45.005Z,972.43
2023-01-01T06:24:44.967Z,972.40
2023-01-01T06:25:45.064Z,972.48
2023-01-01T06:26:44.933Z,972.45
2023-01-01T06:27:44.962Z,972.44
2023-01-01T06:28:44.907Z,972.44
2023-01-01T06:29:44.975Z,972.42
2023-01-01T06:30:44.946Z,972.45
2023-01-01T06:31:44.946Z,972.45
2023-01-01T06:32:45.004Z,972.47
2023-01-01T06:33:44.918Z,972.47
2023-01-01T06:34:44.791Z,972.48
2023-01-01T06:35:44.825Z,972.49
2023-01-01T06:36:44.784Z,972.47
2023-01-01T06:37:44.893Z,972.47
2023-01-01T06:38:44.773Z,972.51
2023-01-01T06:39:44.866Z,972.53
2023-01-01T06:40:44.735Z,972.49
2023-01-01T06:41:44.793Z,972.53
2023-01-01T06:42:44.706Z,972.57
2023-01-01T06:43:44.817Z,972.55
2023-01-01T06:44:44.763Z,972.59
2023-01-01T06:45:44.759Z,972.60
2023-01-01T06:46:44.811Z,972.60
2023-01-01T06:47:44.660Z,972.59
2023-01-01T06:48:44.742Z,972.60
2023-01-01T06:49:44.726Z,972.57
2023-01-01T06:50:44.583Z,972.60
2023-01-01T06:51:44.753Z,972.56
2023-01-01T06:52:44.870Z,972.62
2023-01-01T06:53:44.768Z,972.56
2023-01-01T06:54:44.733Z,972.54
2023-01-01T06:55:44.556Z,972.64
2023-01-01T06:56:44.542Z,972.66
2023-01-01T06:57:44.521Z,972.62
2023-01-01T06:58:44.619Z,972.62
2023-01-01T06:59:44.500Z,972.66
2023-01-01T07:00:44.571Z,972.70
2023-01-01T07:01:45.117Z,972.68
2023-01-01T07:02:44.610Z,972.64
2023-01-01T07:03:44.503Z,972.68
2023-01-01T07:04:44.649Z,972.65
2023-01-01T07:05:44.436Z,972.61
2023-01-01T07:06:44.428Z,972.64
2023-01-01T07:07:44.381Z,972.62
2023-01-01T07:08:44.447Z,972.63
2023-01-01T07:09:44.387Z,972.64
2023-01-01T07:10:44.445Z,972.64
2023-01-01T07:11:45.836Z,972.69
2023-01-01T07:12:44.370Z,972.71
2023-01-01T07:13:44.316Z,972.68
2023-01-01T07:14:45.869Z,972.71
2023-01-01T07:15:44.341Z,972.68
2023-01-01T07:16:44.285Z,972.70
2023-01-01T07:17:44.228Z,972.69
2023-01-01T07:18:44.309Z,972.71
2023-01-01T07:19:44.220Z,972.72
2023-01-01T07:20:44.256Z,972.70
2023-01-01T07:21:44.180Z,972.74
2023-01-01T07:22:44.266Z,972.66
2023-01-01T07:23:44.139Z,972.69
2023-01-01T07:24:44.269Z,972.68
2023-01-01T07:25:44.171Z,972.65
2023-01-01T07:26:44.152Z,972.67
2023-01-01T07:27:44.887Z,972.64
2023-01-01T07:28:44.122Z,972.68
2023-01-01T07:29:45.400Z,972.65
2023-01-01T07:30:44.854Z,972.72
2023-01-01T07:31:45.034Z,972.75
2023-01-01T07:32:44.130Z,972.77
2023-01-01T07:33:44.013Z,972.75
2023-01-01T07:34:50.306Z,972.77
2023-01-01T07:35:44.526Z,972.76
2023-01-01T07:36:44.012Z,972.68
2023-01-01T07:37:43.994Z,972.71
2023-01-01T07:38:44.022Z,972.73
2023-01-01T07:39:43.975Z,972.71
2023-01-01T07:40:44.040Z,972.73
2023-01-01T07:41:43.921Z,972.71
2023-01-01T07:42:43.952Z,972.73
2023-01-01T07:43:45.393Z,972.73
2023-01-01T07:44:44.012Z,972.71
2023-01-01T07:45:44.446Z,972.71
2023-01-01T07:46:43.944Z,972.72
2023-01-01T07:47:43.856Z,972.75
2023-01-01T07:48:43.973Z,972.74
2023-01-01T07:49:43.818Z,972.83
2023-01-01T07:50:43.823Z,972.80
2023-01-01T07:51:43.799Z,972.87
2023-01-01T07:52:43.957Z,972.84
2023-01-01T07:53:43.766Z,972.86
2023-01-01T07:54:43.820Z,972.90
2023-01-01T07:55:43.981Z,972.88
2023-01-01T07:56:43.820Z,972.90
2023-01-01T07:57:43.852Z,972.91
2023-01-01T07:58:43.782Z,972.92
2023-01-01T07:59:43.870Z,972.91
2023-01-01T08:00:43.731Z,972.90
2023-01-01T08:01:43.954Z,972.87
2023-01-01T08:02:43.764Z,972.86
2023-01-01T08:03:43.683Z,972.90
2023-01-01T08:04:43.665Z,972.96
2023-01-01T08:05:43.696Z,972.95
2023-01-01T08:06:43.754Z,972.95
2023-01-01T08:07:43.566Z,972.98
2023-01-01T08:08:43.607Z,972.98
2023-01-01T08:09:43.570Z,973.02
2023-01-01T08:10:43.759Z,973.00
2023-01-01T08:11:43.531Z,973.02
2023-01-01T08:12:44.331Z,972.98
2023-01-01T08:13:43.532Z,973.00
2023-01-01T08:14:43.634Z,973.00
2023-01-01T08:15:43.519Z,973.01
2023-01-01T08:16:43.649Z,973.02
2023-01-01T08:17:46.737Z,973.04
2023-01-01T08:18:43.498Z,973.07
2023-01-01T08:19:43.422Z,973.09
2023-01-01T08:20:43.499Z,973.13
2023-01-01T08:21:43.397Z,973.16
2023-01-01T08:22:43.570Z,973.20
2023-01-01T08:23:43.367Z,973.21
2023-01-01T08:24:43.517Z,973.24
2023-01-01T08:25:43.342Z,973.27
2023-01-01T08:26:43.427Z,973.32
2023-01-01T08:27:43.391Z,973.34
2023-01-01T08:28:43.339Z,973.33
2023-01-01T08:29:43.437Z,973.35
2023-01-01T08:30:43.312Z,973.32
2023-01-01T08:31:43.356Z,973.34
2023-01-01T08:32:43.285Z,973.30
2023-01-01T08:33:43.349Z,973.34
2023-01-01T08:34:43.287Z,973.34
2023-01-01T08:35:45.630Z,973.30
2023-01-01T08:36:43.269Z,973.33
2023-01-01T08:37:43.303Z,973.35
2023-01-01T08:38:43.208Z,973.35
2023-01-01T08:39:43.209Z,973.32
2023-01-01T08:40:43.235Z,973.30
2023-01-01T08:41:43.207Z,973.32
2023-01-01T08:42:43.345Z,973.40
2023-01-01T08:43:43.135Z,973.41
2023-01-01T08:44:43.211Z,973.45
2023-01-01T08:45:43.095Z,973.35
2023-01-01T08:46:43.441Z,973.36
2023-01-01T08:47:43.103Z,973.42
2023-01-01T08:48:43.091Z,973.41
2023-01-01T08:49:43.189Z,973.40
2023-01-01T08:50:43.034Z,973.38
2023-01-01T08:51:43.056Z,973.43
2023-01-01T08:52:43.043Z,973.43
2023-01-01T08:53:48.797Z,973.41
2023-01-01T08:54:43.068Z,973.47
2023-01-01T08:55:42.990Z,973.46
2023-01-01T08:56:43.020Z,973.42
2023-01-01T08:57:43.037Z,973.51
2023-01-01T08:58:43.133Z,973.50
2023-01-01T08:59:43.042Z,973.53
2023-01-01T09:00:42.948Z,973.58
2023-01-01T09:01:43.242Z,973.59
2023-01-01T09:02:43.092Z,973.57
2023-01-01T09:03:43.037Z,973.56
2023-01-01T09:04:42.913Z,973.59
2023-01-01T09:05:42.875Z,973.64
2023-01-01T09:06:42.823Z,973.63
2023-01-01T09:07:42.904Z,973.60
2023-01-01T09:08:42.872Z,973.59
2023-01-01T09:09:42.798Z,973.54
2023-01-01T09:10:42.792Z,973.53
2023-01-01T09:11:42.802Z,973.61
2023-01-01T09:12:42.792Z,973.66
2023-01-01T09:13:43.676Z,973.65
2023-01-01T09:14:42.723Z,973.67
2023-01-01T09:15:42.829Z,973.64
2023-01-01T09:16:44.389Z,973.64
2023-01-01T09:17:42.715Z,973.61
2023-01-01T09:18:42.798Z,973.62
2023-01-01T09:19:42.647Z,973.67
2023-01-01T09:20:42.677Z,973.74
2023-01-01T09:21:42.651Z,973.66
2023-01-01T09:22:42.680Z,973.60
2023-01-01T09:23:42.699Z,973.51
2023-01-01T09:24:42.623Z,973.60
2023-01-01T09:25:42.599Z,973.67
2023-01-01T09:26:42.556Z,973.66
2023-01-01T09:27:42.595Z,973.59
2023-01-01T09:28:42.665Z,973.60
2023-01-01T09:29:42.542Z,973.63
2023-01-01T09:30:42.642Z,973.56
2023-01-01T09:31:42.525Z,973.69
2023-01-01T09:32:42.533Z,973.70
2023-01-01T09:33:42.442Z,973.66
2023-01-01T09:34:45.000Z,973.62
2023-01-01T09:35:42.435Z,973.62
2023-01-01T09:36:42.522Z,973.61
2023-01-01T09:37:42.434Z,973.55
2023-01-01T09:38:42.500Z,973.57
2023-01-01T09:39:42.429Z,973.55
2023-01-01T09:40:46.166Z,973.49
2023-01-01T09:41:42.387Z,973.54
2023-01-01T09:42:42.505Z,973.61
2023-01-01T09:43:42.323Z,973.61
2023-01-01T09:44:42.518Z,973.60
2023-01-01T09:45:42.363Z,973.55
2023-01-01T09:46:42.352Z,973.55
2023-01-01T09:47:42.293Z,973.56
2023-01-01T09:48:42.333Z,973.57
2023-01-01T09:49:42.268Z,973.54
2023-01-01T09:50:42.393Z,973.55
2023-01-01T09:51:48.916Z,973.54
2023-01-01T09:52:42.262Z,973.54
2023-01-01T09:53:42.361Z,973.54
2023-01-01T09:54:42.249Z,973.52
2023-01-01T09:55:42.325Z,973.53
2023-01-01T09:56:42.238Z,973.52
2023-01-01T09:57:42.494Z,973.50
2023-01-01T09:58:42.157Z,973.53
2023-01-01T09:59:42.835Z,973.54
2023-01-01T10:00:42.257Z,973.56
2023-01-01T10:01:42.467Z,973.59
2023-01-01T10:02:43.679Z,973.47
2023-01-01T10:03:42.347Z,973.49
2023-01-01T10:04:42.111Z,973.49
2023-01-01T10:05:42.114Z,973.48
2023-01-01T10:06:42.181Z,973.43
2023-01-01T10:07:42.066Z,973.43
2023-01-01T10:08:42.079Z,973.43
2023-01-01T10:09:42.020Z,973.46
2023-01-01T10:10:42.108Z,973.39
2023-01-01T10:11:41.993Z,973.35
2023-01-01T10:12:42.037Z,973.33
2023-01-01T10:13:42.133Z,973.31
2023-01-01T10:14:42.030Z,973.31
2023-01-01T10:15:41.949Z,973.35
2023-01-01T10:16:42.145Z,973.36
2023-01-01T10:17:41.987Z,973.38
2023-01-01T10:18:42.067Z,973.38
2023-01-01T10:19:41.893Z,973.36
2023-01-01T10:20:41.926Z,973.33
2023-01-01T10:21:46.676Z,973.33
2023-01-01T10:22:41.915Z,973.28
2023-01-01T10:23:41.875Z,973.32
2023-01-01T10:24:41.863Z,973.29
2023-01-01T10:25:41.842Z,973.29
2023-01-01T10:26:41.833Z,973.33
2023-01-01T10:27:41.864Z,973.32
2023-01-01T10:28:41.839Z,973.37
2023-01-01T10:29:41.901Z,973.24
2023-01-01T10:30:41.820Z,973.31
2023-01-01T10:31:41.879Z,973.33
2023-01-01T10:32:41.909Z,973.27
2023-01-01T10:33:42.250Z,973.32
2023-01-01T10:34:41.787Z,973.30
2023-01-01T10:35:41.831Z,973.31
2023-01-01T10:36:41.726Z,973.29
2023-01-01T10:37:41.901Z,973.27
2023-01-01T10:38:41.674Z,973.27
2023-01-01T10:39:41.849Z,973.28
2023-01-01T10:40:41.807Z,973.25
2023-01-01T10:41:41.605Z,973.20
2023-01-01T10:42:41.733Z,973.19
2023-01-01T10:43:41.608Z,973.25
2023-01-01T10:44:41.808Z,973.23
2023-01-01T10:45:41.725Z,973.21
2023-01-01T10:46:41.647Z,973.20
2023-01-01T10:47:41.573Z,973.14
2023-01-01T10:48:42.150Z,973.11
2023-01-01T10:49:42.088Z,973.12
2023-01-01T10:50:41.562Z,973.15
2023-01-01T10:51:41.621Z,973.13
2023-01-01T10:52:41.507Z,973.21
2023-01-01T10:53:41.534Z,973.17
2023-01-01T10:54:41.490Z,973.21
2023-01-01T10:55:41.507Z,973.20
2023-01-01T10:56:41.506Z,973.22
2023-01-01T10:57:42.431Z,973.25
2023-01-01T10:58:41.445Z,973.24
2023-01-01T10:59:41.498Z,973.21
2023-01-01T11:00:41.474Z,973.19
2023-01-01T11:01:41.513Z,973.17
2023-01-01T11:02:41.512Z,973.21
2023-01-01T11:03:41.436Z,973.18
2023-01-01T11:04:41.344Z,973.15
2023-01-01T11:05:41.594Z,973.18
2023-01-01T11:06:41.440Z,973.16
2023-01-01T11:07:41.370Z,973.14
2023-01-01T11:08:41.359Z,973.12
2023-01-01T11:09:45.007Z,973.12
2023-01-01T11:10:41.291Z,973.08
2023-01-01T11:11:41.333Z,973.10
2023-01-01T11:13:41.218Z,973.04
2023-01-01T11:14:41.226Z,973.05
2023-01-01T11:15:41.442Z,973.09
2023-01-01T11:16:41.369Z,973.03
2023-01-01T11:17:41.233Z,973.08
2023-01-01T11:18:41.233Z,973.04
2023-01-01T11:19:44.377Z,973.13
2023-01-01T11:20:41.719Z,973.05
2023-01-01T11:21:41.286Z,973.11
2023-01-01T11:22:41.169Z,972.97
2023-01-01T11:23:41.276Z,972.95
2023-01-01T11:24:41.141Z,972.90
2023-01-01T11:25:41.296Z,972.94
2023-01-01T11:26:41.148Z,972.99
2023-01-01T11:27:41.236Z,972.96
2023-01-01T11:28:41.160Z,973.00
2023-01-01T11:29:41.156Z,972.99
2023-01-01T11:30:41.072Z,972.99
2023-01-01T11:31:41.112Z,972.96
2023-01-01T11:32:41.028Z,972.84
2023-01-01T11:33:41.223Z,972.79
2023-01-01T11:34:40.995Z,972.76
2023-01-01T11:35:41.167Z,972.70
2023-01-01T11:36:40.950Z,972.72
2023-01-01T11:37:41.002Z,972.65
2023-01-01T11:38:40.957Z,972.62
2023-01-01T11:39:40.958Z,972.55
2023-01-01T11:40:40.921Z,972.42
2023-01-01T11:41:40.926Z,972.39
2023-01-01T11:42:40.898Z,972.43
2023-01-01T11:43:40.946Z,972.40
2023-01-01T11:44:40.876Z,972.44
2023-01-01T11:45:40.969Z,972.39
2023-01-01T11:46:40.825Z,972.35
2023-01-01T11:47:40.860Z,972.25
2023-01-01T11:48:40.783Z,972.22
2023-01-01T11:49:40.877Z,972.22
2023-01-01T11:50:41.357Z,972.19
2023-01-01T11:51:40.847Z,972.20
2023-01-01T11:52:40.814Z,972.14
2023-01-01T11:53:40.761Z,972.19
2023-01-01T11:54:40.852Z,972.14
2023-01-01T11:55:40.757Z,972.11
2023-01-01T11:56:40.868Z,972.12
2023-01-01T11:57:40.822Z,972.13
2023-01-01T11:58:40.680Z,972.10
2023-01-01T11:59:40.756Z,972.05
2023-01-01T12:00:40.656Z,971.96
2023-01-01T12:01:40.800Z,971.99
2023-01-01T12:02:40.706Z,972.04
2023-01-01T12:03:40.786Z,972.08
2023-01-01T12:04:40.585Z,972.06
2023-01-01T12:05:40.681Z,971.97
2023-01-01T12:06:40.596Z,971.99
2023-01-01T12:07:40.646Z,971.97
2023-01-01T12:08:40.543Z,971.92
2023-01-01T12:09:40.657Z,971.89
2023-01-01T12:10:40.582Z,971.91
2023-01-01T12:11:40.673Z,971.89
2023-01-01T12:12:40.498Z,971.92
2023-01-01T12:13:40.690Z,971.87
2023-01-01T12:14:40.493Z,971.90
2023-01-01T12:15:40.590Z,971.79
2023-01-01T12:16:40.457Z,971.75
2023-01-01T12:17:40.523Z,971.78
2023-01-01T12:18:40.521Z,971.82
2023-01-01T12:19:40.477Z,971.82
2023-01-01T12:20:41.848Z,971.80
2023-01-01T12:21:40.403Z,971.79
2023-01-01T12:22:40.461Z,971.82
2023-01-01T12:23:40.453Z,971.83
2023-01-01T12:24:40.366Z,971.84
2023-01-01T12:25:40.397Z,971.77
2023-01-01T12:26:40.397Z,971.73
2023-01-01T12:27:40.413Z,971.65
2023-01-01T12:28:41.774Z,971.72
2023-01-01T12:29:40.325Z,971.66
2023-01-01T12:30:40.403Z,971.75
2023-01-01T12:31:40.382Z,971.74
2023-01-01T12:32:40.429Z,971.75
2023-01-01T12:33:40.314Z,971.77